createdAt,value
2019-01-19T00:02:40.374Z,52.60
2019-01-19T00:05:32.664Z,53.20
2019-01-19T00:09:01.989Z,53.50
2019-01-19T00:12:03.228Z,53.60
2019-01-19T00:15:15.815Z,53.60
2019-01-19T00:18:21.513Z,53.60
2019-01-19T00:21:23.943Z,53.90
2019-01-19T00:24:53.210Z,54.20
2019-01-19T00:27:54.425Z,54.30
2019-01-19T00:31:02.488Z,54.40
2019-01-19T00:38:02.074Z,54.90
2019-01-19T00:41:05.901Z,55.10
2019-01-19T00:44:35.138Z,55.20
2019-01-19T00:47:38.690Z,55.80
2019-01-19T00:51:08.105Z,55.70
2019-01-19T00:53:56.260Z,55.80
2019-01-19T00:57:25.422Z,55.20
2019-01-19T01:00:22.218Z,55.00
2019-01-19T01:03:42.235Z,55.10
2019-01-19T01:06:44.771Z,55.30
2019-01-19T01:10:14.043Z,55.30
2019-01-19T01:13:16.492Z,55.20
2019-01-19T01:16:30.360Z,54.90
2019-01-19T01:19:59.617Z,54.30
2019-01-19T01:23:00.806Z,54.70
2019-01-19T01:26:03.978Z,54.70
2019-01-19T01:29:33.274Z,54.40
2019-01-19T01:32:39.356Z,54.40
2019-01-19T01:36:08.621Z,54.00
2019-01-19T01:39:20.234Z,53.90
2019-01-19T01:42:32.417Z,53.70
2019-01-19T01:45:57.175Z,53.50
2019-01-19T01:48:58.297Z,53.50
2019-01-19T01:51:58.656Z,53.30
2019-01-19T01:55:20.182Z,53.50
2019-01-19T01:58:37.281Z,53.10
2019-01-19T02:02:06.716Z,52.90
2019-01-19T02:05:12.067Z,52.50
2019-01-19T02:08:41.393Z,52.00
2019-01-19T02:11:31.898Z,51.80
2019-01-19T02:14:56.642Z,51.70
2019-01-19T02:18:22.394Z,51.70
2019-01-19T02:21:51.617Z,51.70
2019-01-19T02:24:47.543Z,51.60
2019-01-19T02:28:16.810Z,52.60
2019-01-19T02:31:17.772Z,52.10
2019-01-19T02:34:31.288Z,52.20
2019-01-19T02:37:31.292Z,52.20
2019-01-19T02:40:36.975Z,52.30
2019-01-19T02:43:59.917Z,52.20
2019-01-19T02:47:29.219Z,52.10
2019-01-19T02:50:32.063Z,51.80
2019-01-19T02:54:01.326Z,51.50
2019-01-19T02:57:23.003Z,51.40
2019-01-19T03:00:37.443Z,51.40
2019-01-19T03:03:37.782Z,51.70
2019-01-19T03:06:55.293Z,51.70
2019-01-19T03:10:03.911Z,51.90
2019-01-19T03:13:33.212Z,51.70
2019-01-19T03:16:59.182Z,51.60
2019-01-19T03:20:15.572Z,51.30
2019-01-19T03:23:38.724Z,51.70
2019-01-19T03:26:45.468Z,50.80
2019-01-19T03:29:34.190Z,50.60
2019-01-19T03:32:49.137Z,50.30
2019-01-19T03:35:46.075Z,50.30
2019-01-19T03:39:15.517Z,50.20
2019-01-19T03:42:20.862Z,50.00
2019-01-19T03:45:50.126Z,49.80
2019-01-19T03:49:10.370Z,49.60
2019-01-19T03:52:18.028Z,50.40
2019-01-19T03:55:27.606Z,50.80
2019-01-19T03:58:49.475Z,51.00
2019-01-19T04:01:59.700Z,51.10
2019-01-19T04:05:29.008Z,51.10
2019-01-19T04:08:49.047Z,50.70
2019-01-19T04:12:04.494Z,50.00
2019-01-19T04:15:33.755Z,50.10
2019-01-19T04:18:28.934Z,50.00
2019-01-19T04:21:31.574Z,49.90
2019-01-19T04:25:00.801Z,50.00
2019-01-19T04:27:44.245Z,49.70
2019-01-19T04:30:35.173Z,49.60
2019-01-19T04:33:16.859Z,50.20
2019-01-19T04:39:24.821Z,49.40
2019-01-19T04:42:07.231Z,49.00
2019-01-19T04:44:58.160Z,49.30
2019-01-19T04:47:41.644Z,49.40
2019-01-19T04:50:32.658Z,49.40
2019-01-19T04:53:23.613Z,49.30
2019-01-19T04:56:05.422Z,49.30
2019-01-19T04:58:56.399Z,49.10
2019-01-19T05:01:38.244Z,49.10
2019-01-19T05:04:29.211Z,49.00
2019-01-19T05:07:12.506Z,49.30
2019-01-19T05:10:03.567Z,49.50
2019-01-19T05:12:45.319Z,49.80
2019-01-19T05:15:36.239Z,49.80
2019-01-19T05:18:19.928Z,50.40
2019-01-19T05:21:11.034Z,49.80
2019-01-19T05:23:52.534Z,49.70
2019-01-19T05:26:43.461Z,49.70
2019-01-19T05:29:24.817Z,49.80
2019-01-19T05:35:32.953Z,50.00
2019-01-19T05:38:16.210Z,50.00
2019-01-19T05:41:07.148Z,50.10
2019-01-19T05:43:48.966Z,49.90
2019-01-19T05:46:39.911Z,49.90
2019-01-19T05:49:21.549Z,49.80
2019-01-19T05:52:05.109Z,49.80
2019-01-19T05:54:56.080Z,49.40
2019-01-19T05:57:37.771Z,49.30
2019-01-19T06:00:23.162Z,49.30
2019-01-19T06:03:05.339Z,49.10
2019-01-19T06:05:56.543Z,49.00
2019-01-19T06:08:38.338Z,48.80
2019-01-19T06:11:29.298Z,48.90
2019-01-19T06:14:11.167Z,48.90
2019-01-19T06:17:02.126Z,49.40
2019-01-19T06:19:44.009Z,48.70
2019-01-19T06:22:34.995Z,49.40
2019-01-19T06:25:18.267Z,48.70
2019-01-19T06:28:01.762Z,48.70
2019-01-19T06:30:52.688Z,48.70
2019-01-19T06:33:34.518Z,48.80
2019-01-19T06:36:25.452Z,48.80
2019-01-19T06:39:09.130Z,48.80
2019-01-19T06:42:00.046Z,48.80
2019-01-19T06:44:41.882Z,48.80
2019-01-19T06:47:25.459Z,48.60
2019-01-19T06:50:08.221Z,48.60
2019-01-19T06:52:59.200Z,48.40
2019-01-19T06:55:42.699Z,48.40
2019-01-19T06:58:24.490Z,48.40
2019-01-19T07:01:15.456Z,48.40
2019-01-19T07:03:58.808Z,48.20
2019-01-19T07:06:49.774Z,48.20
2019-01-19T07:09:31.515Z,48.30
2019-01-19T07:12:22.455Z,48.30
2019-01-19T07:15:04.456Z,48.10
2019-01-19T07:17:46.413Z,48.10
2019-01-19T07:20:37.398Z,48.20
2019-01-19T07:23:19.003Z,47.90
2019-01-19T07:26:09.963Z,48.00
2019-01-19T07:28:51.885Z,48.10
2019-01-19T07:31:42.821Z,48.00
2019-01-19T07:34:24.729Z,47.90
2019-01-19T07:37:15.700Z,48.10
2019-01-19T07:39:57.414Z,48.20
2019-01-19T07:42:40.567Z,48.20
2019-01-19T07:45:31.533Z,48.10
2019-01-19T07:48:15.062Z,48.00
2019-01-19T07:51:06.041Z,47.90
2019-01-19T07:53:49.329Z,48.10
2019-01-19T07:56:40.260Z,48.40
2019-01-19T07:59:22.087Z,48.50
2019-01-19T08:02:13.035Z,48.60
2019-01-19T08:04:54.844Z,48.50
2019-01-19T08:07:45.794Z,49.10
2019-01-19T08:10:30.621Z,49.20
2019-01-19T08:13:21.553Z,49.80
2019-01-19T08:16:03.380Z,50.20
2019-01-19T08:19:13.511Z,50.30
2019-01-19T08:21:57.030Z,50.40
2019-01-19T08:24:40.363Z,50.70
2019-01-19T08:27:31.305Z,51.10
2019-01-19T08:30:20.845Z,52.50
2019-01-19T08:33:11.798Z,54.10
2019-01-19T08:35:53.641Z,56.40
2019-01-19T08:38:44.637Z,57.60
2019-01-19T08:41:26.443Z,58.20
2019-01-19T08:44:08.472Z,58.60
2019-01-19T08:46:59.403Z,59.30
2019-01-19T08:49:42.509Z,59.50
2019-01-19T08:52:33.448Z,59.50
2019-01-19T08:55:17.435Z,59.30
2019-01-19T08:58:08.575Z,59.20
2019-01-19T09:00:50.444Z,58.60
2019-01-19T09:03:31.882Z,58.50
2019-01-19T09:06:22.804Z,58.30
2019-01-19T09:09:06.395Z,58.80
2019-01-19T09:11:57.329Z,58.40
2019-01-19T09:14:38.719Z,58.60
2019-01-19T09:17:29.653Z,58.90
2019-01-19T09:20:12.530Z,58.70
2019-01-19T09:26:09.813Z,58.10
2019-01-19T09:28:51.528Z,57.60
2019-01-19T09:31:32.876Z,57.40
2019-01-19T09:34:23.834Z,56.80
2019-01-19T09:37:05.705Z,56.90
2019-01-19T09:39:56.669Z,56.70
2019-01-19T09:42:40.143Z,55.70
2019-01-19T09:45:32.575Z,55.70
2019-01-19T09:48:33.776Z,56.20
2019-01-19T09:51:05.762Z,56.70
2019-01-19T09:53:47.722Z,57.20
2019-01-19T09:56:38.646Z,56.20
2019-01-19T09:59:20.425Z,56.40
2019-01-19T10:02:11.374Z,55.40
2019-01-19T10:04:53.290Z,55.60
2019-01-19T10:07:48.414Z,54.20
2019-01-19T10:10:33.047Z,54.10
2019-01-19T10:13:24.005Z,53.90
2019-01-19T10:16:05.840Z,54.90
2019-01-19T10:18:56.781Z,53.80
2019-01-19T10:21:38.642Z,54.10
2019-01-19T10:24:29.594Z,53.70
2019-01-19T10:27:13.124Z,53.70
2019-01-19T10:29:55.122Z,53.50
2019-01-19T10:32:36.854Z,53.40
2019-01-19T10:35:20.385Z,52.70
2019-01-19T10:38:11.307Z,52.30
2019-01-19T10:40:53.269Z,51.10
2019-01-19T10:43:44.198Z,51.70
2019-01-19T10:46:25.917Z,51.90
2019-01-19T10:49:16.855Z,52.80
2019-01-19T10:51:59.524Z,52.80
2019-01-19T10:54:50.496Z,52.80
2019-01-19T10:57:33.869Z,51.60
2019-01-19T11:00:29.504Z,50.80
2019-01-19T11:03:11.321Z,51.20
2019-01-19T11:05:54.977Z,51.40
2019-01-19T11:08:26.860Z,51.20
2019-01-19T11:11:08.489Z,50.90
2019-01-19T11:13:59.419Z,51.70
2019-01-19T11:16:42.889Z,50.80
2019-01-19T11:19:33.810Z,50.50
2019-01-19T11:22:15.624Z,50.70
2019-01-19T11:25:06.619Z,50.50
2019-01-19T11:27:48.391Z,49.60
2019-01-19T11:30:31.271Z,49.50
2019-01-19T11:33:12.859Z,48.20
2019-01-19T11:35:54.338Z,48.50
2019-01-19T11:38:45.266Z,48.40
2019-01-19T11:41:28.723Z,48.70
2019-01-19T11:44:19.661Z,49.60
2019-01-19T11:47:03.302Z,49.40
2019-01-19T11:49:54.224Z,49.80
2019-01-19T11:52:37.753Z,50.50
2019-01-19T11:55:28.705Z,50.60
2019-01-19T11:58:12.218Z,50.30
2019-01-19T12:00:55.767Z,50.60
2019-01-19T12:03:46.683Z,49.40
2019-01-19T12:06:18.609Z,49.40
2019-01-19T12:09:09.600Z,49.30
2019-01-19T12:11:51.682Z,48.80
2019-01-19T12:14:42.597Z,48.20
2019-01-19T12:17:26.111Z,48.00
2019-01-19T12:20:22.533Z,47.80
2019-01-19T12:23:04.233Z,47.70
2019-01-19T12:25:47.692Z,47.60
2019-01-19T12:28:29.031Z,48.50
2019-01-19T12:31:10.465Z,47.40
2019-01-19T12:34:01.384Z,47.60
2019-01-19T12:36:43.024Z,47.50
2019-01-19T12:39:34.018Z,46.80
2019-01-19T12:42:16.218Z,47.00
2019-01-19T12:45:10.424Z,46.70
2019-01-19T12:47:53.801Z,47.30
2019-01-19T12:50:37.344Z,47.30
2019-01-19T12:53:18.796Z,47.10
2019-01-19T12:56:00.940Z,47.00
2019-01-19T12:58:51.850Z,45.60
2019-01-19T13:01:33.522Z,47.20
2019-01-19T13:04:24.446Z,47.80
2019-01-19T13:07:13.325Z,48.10
2019-01-19T13:10:25.434Z,48.30
2019-01-19T13:13:40.062Z,48.00
2019-01-19T13:17:09.316Z,48.70
2019-01-19T13:20:10.824Z,49.30
2019-01-19T13:23:04.242Z,49.20
2019-01-19T13:26:26.873Z,49.30
2019-01-19T13:29:27.893Z,49.10
2019-01-19T13:32:57.483Z,48.60
2019-01-19T13:36:26.727Z,48.30
2019-01-19T13:39:43.592Z,48.30
2019-01-19T13:43:03.570Z,47.40
2019-01-19T13:46:32.856Z,48.30
2019-01-19T13:49:35.271Z,48.70
2019-01-19T13:52:59.905Z,49.20
2019-01-19T13:56:29.224Z,49.20
2019-01-19T13:59:30.603Z,49.20
2019-01-19T14:02:42.643Z,49.50
2019-01-19T14:06:01.270Z,49.30
2019-01-19T14:09:23.946Z,48.80
2019-01-19T14:12:53.201Z,48.70
2019-01-19T14:16:13.466Z,49.10
2019-01-19T14:19:29.681Z,49.40
2019-01-19T14:22:59.259Z,49.20
2019-01-19T14:26:28.359Z,49.40
2019-01-19T14:29:28.645Z,49.90
2019-01-19T14:32:57.861Z,50.50
2019-01-19T14:36:21.047Z,51.10
2019-01-19T14:39:21.172Z,50.90
2019-01-19T14:42:44.645Z,50.70
2019-01-19T14:45:45.037Z,50.70
2019-01-19T14:49:15.204Z,50.40
2019-01-19T14:52:11.719Z,49.40
2019-01-19T14:55:32.024Z,50.10
2019-01-19T14:59:01.280Z,50.20
2019-01-19T15:02:02.412Z,50.10
2019-01-19T15:05:06.675Z,50.10
2019-01-19T15:08:36.038Z,50.20
2019-01-19T15:11:38.337Z,50.40
2019-01-19T15:14:41.145Z,50.00
2019-01-19T15:18:10.373Z,49.60
2019-01-19T15:21:10.365Z,49.80
2019-01-19T15:24:33.106Z,49.70
2019-01-19T15:27:35.815Z,50.30
2019-01-19T15:30:44.032Z,50.30
2019-01-19T15:34:10.064Z,50.20
2019-01-19T15:37:19.341Z,50.60
2019-01-19T15:40:48.642Z,50.60
2019-01-19T15:43:51.012Z,51.30
2019-01-19T15:46:42.447Z,50.60
2019-01-19T15:49:43.901Z,50.20
2019-01-19T15:53:00.736Z,50.00
2019-01-19T15:56:00.586Z,49.90
2019-01-19T15:59:29.807Z,49.80
2019-01-19T16:02:29.978Z,50.00
2019-01-19T16:05:48.739Z,50.40
2019-01-19T16:09:18.058Z,50.60
2019-01-19T16:12:10.116Z,50.30
2019-01-19T16:15:39.521Z,49.40
2019-01-19T16:18:36.036Z,49.80
2019-01-19T16:22:05.310Z,49.90
2019-01-19T16:25:28.067Z,50.10
2019-01-19T16:28:40.056Z,50.60
2019-01-19T16:31:31.430Z,50.80
2019-01-19T16:34:32.968Z,50.60
2019-01-19T16:38:01.981Z,50.90
2019-01-19T16:41:31.239Z,51.00
2019-01-19T16:44:34.063Z,50.50
2019-01-19T16:48:03.395Z,50.20
2019-01-19T16:51:32.471Z,50.00
2019-01-19T16:54:19.172Z,49.80
2019-01-19T17:01:40.340Z,50.40
2019-01-19T17:05:09.987Z,50.20
2019-01-19T17:08:09.917Z,50.00
2019-01-19T17:11:39.505Z,49.20
2019-01-19T17:15:05.573Z,49.30
2019-01-19T17:18:19.333Z,49.20
2019-01-19T17:24:47.770Z,49.60
2019-01-19T17:27:41.993Z,49.80
2019-01-19T17:31:11.528Z,49.30
2019-01-19T17:34:33.377Z,49.30
2019-01-19T17:37:54.614Z,49.50
2019-01-19T17:41:15.004Z,49.60
2019-01-19T17:44:44.534Z,50.20
2019-01-19T17:47:51.990Z,50.10
2019-01-19T17:51:09.551Z,49.90
2019-01-19T17:57:37.774Z,50.40
2019-01-19T18:00:30.380Z,50.50
2019-01-19T18:03:45.328Z,50.60
2019-01-19T18:06:53.415Z,50.40
2019-01-19T18:10:22.839Z,50.00
2019-01-19T18:13:48.454Z,49.60
2019-01-19T18:17:17.820Z,48.90
2019-01-19T18:20:40.079Z,49.20
2019-01-19T18:24:09.306Z,49.50
2019-01-19T18:27:25.436Z,49.40
2019-01-19T18:30:55.002Z,49.40
2019-01-19T18:37:22.979Z,49.70
2019-01-19T18:40:38.138Z,49.70
2019-01-19T18:47:31.635Z,49.70
2019-01-19T18:54:00.937Z,50.80
2019-01-19T18:57:24.212Z,51.00
2019-01-19T19:00:53.476Z,51.20
2019-01-19T19:04:03.749Z,51.20
2019-01-19T19:07:17.649Z,51.20
2019-01-19T19:10:20.004Z,50.90
2019-01-19T19:13:49.314Z,50.40
2019-01-19T19:16:58.808Z,50.20
2019-01-19T19:20:14.869Z,49.80
2019-01-19T19:23:43.872Z,49.80
2019-01-19T19:26:52.379Z,49.80
2019-01-19T19:30:07.016Z,49.70
2019-01-19T19:32:57.998Z,49.60
2019-01-19T19:36:26.763Z,49.50
2019-01-19T19:39:56.030Z,49.70
2019-01-19T19:46:29.312Z,49.60
2019-01-19T19:49:22.576Z,49.70
2019-01-19T19:52:13.559Z,49.80
2019-01-19T19:54:53.945Z,49.40
2019-01-19T19:57:44.920Z,49.50
2019-01-19T20:00:28.522Z,49.50
2019-01-19T20:03:19.475Z,49.50
2019-01-19T20:06:01.486Z,49.40
2019-01-19T20:08:52.414Z,49.50
2019-01-19T20:11:34.406Z,49.30
2019-01-19T20:14:25.803Z,49.30
2019-01-19T20:17:07.968Z,49.40
2019-01-19T20:19:59.043Z,49.20
2019-01-19T20:22:40.910Z,49.20
2019-01-19T20:25:32.056Z,49.30
2019-01-19T20:28:15.758Z,49.10
2019-01-19T20:31:06.684Z,49.00
2019-01-19T20:33:50.013Z,49.10
2019-01-19T20:36:41.556Z,49.10
2019-01-19T20:39:24.043Z,49.20
2019-01-19T20:42:15.017Z,48.90
2019-01-19T20:44:57.699Z,48.50
2019-01-19T20:47:48.659Z,48.30
2019-01-19T20:50:32.019Z,48.10
2019-01-19T20:53:22.984Z,48.00
2019-01-19T20:56:06.376Z,48.00
2019-01-19T20:58:57.334Z,48.10
2019-01-19T21:01:39.059Z,48.00
2019-01-19T21:04:30.008Z,47.80
2019-01-19T21:07:11.701Z,47.60
2019-01-19T21:10:02.682Z,47.50
2019-01-19T21:12:44.222Z,47.40
2019-01-19T21:15:16.241Z,47.40
2019-01-19T21:17:58.147Z,47.50
2019-01-19T21:20:49.077Z,47.30
2019-01-19T21:23:30.973Z,47.30
2019-01-19T21:26:22.211Z,47.00
2019-01-19T21:29:22.942Z,47.10
2019-01-19T21:32:13.881Z,46.80
2019-01-19T21:34:55.907Z,46.80
2019-01-19T21:37:46.938Z,46.80
2019-01-19T21:40:29.142Z,46.70
2019-01-19T21:43:20.072Z,46.90
2019-01-19T21:46:02.460Z,47.00
2019-01-19T21:48:53.426Z,47.10
2019-01-19T21:51:35.507Z,47.00
2019-01-19T21:54:26.429Z,47.20
2019-01-19T21:57:09.910Z,47.10
2019-01-19T22:00:00.836Z,47.00
2019-01-19T22:02:42.662Z,47.20
2019-01-19T22:05:33.956Z,47.10
2019-01-19T22:08:18.410Z,47.20
2019-01-19T22:11:09.376Z,47.30
2019-01-19T22:13:51.162Z,47.40
2019-01-19T22:16:42.114Z,47.50
2019-01-19T22:19:24.126Z,47.30
2019-01-19T22:22:15.107Z,47.30
2019-01-19T22:24:56.699Z,47.10
2019-01-19T22:27:49.096Z,46.90
2019-01-19T22:30:31.688Z,46.50
2019-01-19T22:36:32.576Z,46.60
2019-01-19T22:39:23.515Z,46.60
2019-01-19T22:42:05.520Z,46.50
2019-01-19T22:44:56.844Z,46.60
2019-01-19T22:47:38.785Z,46.70
2019-01-19T22:50:29.724Z,46.70
2019-01-19T22:53:11.889Z,46.60
2019-01-19T22:56:02.856Z,46.60
2019-01-19T22:59:03.659Z,46.60
2019-01-19T23:02:00.771Z,46.50
2019-01-19T23:04:42.167Z,46.20
2019-01-19T23:07:33.284Z,46.10
2019-01-19T23:10:15.257Z,46.10
2019-01-19T23:13:06.202Z,46.20
2019-01-19T23:15:49.552Z,46.30
2019-01-19T23:18:40.515Z,46.40
2019-01-19T23:21:22.152Z,46.20
2019-01-19T23:24:13.127Z,46.30
2019-01-19T23:30:10.452Z,46.20
2019-01-19T23:33:01.615Z,46.10
2019-01-19T23:36:02.634Z,45.80
2019-01-19T23:38:53.563Z,46.00
2019-01-19T23:41:36.835Z,45.80
2019-01-19T23:47:34.344Z,45.60
2019-01-19T23:50:25.312Z,45.90
2019-01-19T23:53:07.124Z,45.80
2019-01-19T23:55:58.088Z,45.50
2019-01-19T23:58:39.884Z,45.40
